Time;durP1;ratioP1;P1;durP2;ratioP2;P2;SDS_P1;SDS_P2;PMS_P1;PMS_P2;Temp;Humidity;BMP_temperature;BMP_pressure;BME280_temperature;BME280_humidity;BME280_pressure;Samples;Min_cycle;Max_cycle;Signal;HPM_P1;HPM_P2
2022/06/04 00:00:22;;;;;;;;;3.00;3.00;;;;;14.97;60.38;102092.94;5033752;28;9363;-67
2022/06/04 00:02:50;;;;;;;;;5.00;5.00;;;;;14.91;60.56;102093.69;5033622;28;10099;-66
2022/06/04 00:05:22;;;;;;;;;6.00;6.00;;;;;14.87;59.99;102095.13;5034762;28;9600;-65
2022/06/04 00:07:50;;;;;;;;;4.50;4.00;;;;;14.86;60.56;102082.59;5034746;28;9605;-68
2022/06/04 00:15:54;;;;;;;;;12.50;8.75;;;;;15.06;60.85;102086.34;5035051;28;9458;-67
2022/06/04 00:18:22;;;;;;;;;6.75;6.75;;;;;15.01;61.14;102088.81;5034051;28;9790;-67
2022/06/04 00:20:51;;;;;;;;;6.00;6.00;;;;;15.01;60.74;102080.69;5034731;28;9536;-68
2022/06/04 00:23:17;;;;;;;;;7.00;7.00;;;;;14.93;60.21;102087.06;5034457;28;9680;-66
2022/06/04 00:25:52;;;;;;;;;8.25;7.00;;;;;14.88;60.61;102089.53;5035439;28;9677;-67
2022/06/04 00:28:21;;;;;;;;;6.50;6.25;;;;;14.77;61.78;102088.16;5031546;28;9524;-67
2022/06/04 00:30:48;;;;;;;;;10.75;8.00;;;;;14.72;61.97;102103.31;5032508;28;9623;-65
2022/06/04 00:33:18;;;;;;;;;7.00;7.00;;;;;14.67;62.65;102098.47;5032134;28;9883;-65
2022/06/04 00:35:47;;;;;;;;;9.00;8.00;;;;;14.65;62.43;102089.66;5032218;28;9660;-63
2022/06/04 00:38:16;;;;;;;;;7.50;7.00;;;;;14.64;61.86;102098.00;5033439;28;9673;-67
2022/06/04 00:40:48;;;;;;;;;7.50;7.50;;;;;14.60;61.57;102097.53;5033619;28;10326;-67
2022/06/04 00:43:16;;;;;;;;;8.75;7.75;;;;;14.46;61.88;102101.06;5033802;28;9915;-67
2022/06/04 00:46:01;;;;;;;;;7.25;6.00;;;;;14.50;62.10;102102.41;5033828;28;9678;-67
2022/06/04 00:48:28;;;;;;;;;7.25;6.75;;;;;14.62;61.73;102105.47;5033963;28;9730;-66
2022/06/04 00:50:54;;;;;;;;;5.00;5.00;;;;;14.63;61.60;102107.19;5033482;28;9763;-67
2022/06/04 00:53:21;;;;;;;;;5.50;5.50;;;;;14.59;62.18;102104.00;5033775;28;9523;-67
2022/06/04 00:56:00;;;;;;;;;5.00;5.00;;;;;14.62;61.84;102105.47;5033411;28;9597;-66
2022/06/04 00:58:50;;;;;;;;;7.00;7.00;;;;;14.58;62.06;102105.00;5032202;28;9594;-66
2022/06/04 01:01:26;;;;;;;;;9.25;6.75;;;;;14.52;62.26;102105.78;5033600;28;9667;-66
2022/06/04 01:04:00;;;;;;;;;7.25;7.25;;;;;14.48;62.46;102104.44;5033495;28;9674;-66
2022/06/04 01:06:43;;;;;;;;;3.75;3.75;;;;;14.40;63.38;102096.44;5033297;28;9914;-66
2022/06/04 01:09:38;;;;;;;;;8.00;7.00;;;;;14.35;63.52;102100.53;5033447;28;9589;-65
2022/06/04 01:12:17;;;;;;;;;3.00;3.00;;;;;14.39;63.87;102098.28;5033081;28;9936;-66
2022/06/04 01:14:49;;;;;;;;;9.50;8.25;;;;;14.42;64.05;102091.63;5033259;28;9599;-66
2022/06/04 01:17:33;;;;;;;;;7.50;6.25;;;;;14.43;64.27;102096.06;5032742;28;9796;-65
2022/06/04 01:20:07;;;;;;;;;4.50;4.50;;;;;14.40;64.30;102091.00;5033262;28;9841;-66
2022/06/04 01:22:59;;;;;;;;;5.25;5.25;;;;;14.40;64.59;102093.72;5033059;28;9721;-66
2022/06/04 01:25:47;;;;;;;;;7.00;7.00;;;;;14.34;64.35;102093.44;5031443;28;9756;-67
2022/06/04 01:28:16;;;;;;;;;7.00;6.50;;;;;14.28;64.23;102099.59;5032562;28;9662;-66
2022/06/04 01:30:50;;;;;;;;;7.50;7.50;;;;;14.26;65.28;102084.56;5024875;28;10456;-66
2022/06/04 01:33:22;;;;;;;;;8.00;8.00;;;;;14.29;65.24;102082.31;5032912;28;9744;-66
2022/06/04 01:36:13;;;;;;;;;6.00;5.00;;;;;14.31;64.71;102088.41;5032097;28;10371;-66
2022/06/04 01:38:55;;;;;;;;;5.75;5.75;;;;;14.29;64.40;102087.72;5032682;28;9661;-66
2022/06/04 01:41:29;;;;;;;;;9.25;7.50;;;;;14.13;65.14;102092.50;5032684;28;10435;-66
2022/06/04 01:44:05;;;;;;;;;7.00;7.00;;;;;14.07;65.33;102115.78;5032283;28;9690;-66
2022/06/04 01:46:35;;;;;;;;;9.50;7.75;;;;;14.06;65.90;102116.81;5032630;28;9673;-66
2022/06/04 01:49:09;;;;;;;;;10.25;7.50;;;;;14.10;65.53;102115.41;5033319;28;9766;-66
2022/06/04 01:51:36;;;;;;;;;6.75;6.75;;;;;14.05;65.76;102117.81;5032493;28;9904;-66
2022/06/04 01:54:17;;;;;;;;;11.00;9.50;;;;;13.99;65.84;102118.56;5032416;28;9760;-66
2022/06/04 01:56:49;;;;;;;;;9.25;8.00;;;;;13.96;65.69;102127.06;5032666;28;9905;-66
2022/06/04 01:59:19;;;;;;;;;9.00;8.00;;;;;13.92;65.85;102125.75;5032670;28;9839;-66
2022/06/04 02:01:47;;;;;;;;;9.00;9.00;;;;;13.97;65.86;102136.84;5032317;28;9918;-66
2022/06/04 02:04:20;;;;;;;;;9.00;7.25;;;;;14.01;65.83;102136.28;5031672;28;9951;-66
2022/06/04 02:09:54;;;;;;;;;11.75;9.50;;;;;14.10;65.65;102142.47;5032319;28;9842;-66
2022/06/04 02:12:22;;;;;;;;;9.00;9.00;;;;;14.06;64.98;102139.31;5030470;28;9851;-66
2022/06/04 02:14:49;;;;;;;;;12.00;12.00;;;;;13.99;65.52;102137.53;5032105;28;9948;-66
2022/06/04 02:17:23;;;;;;;;;9.25;9.25;;;;;14.00;65.45;102131.06;5032434;28;9923;-66
2022/06/04 02:19:49;;;;;;;;;7.25;7.25;;;;;14.07;65.31;102129.31;5032113;28;9918;-66
2022/06/04 02:22:16;;;;;;;;;11.50;11.00;;;;;14.02;65.90;102119.03;5031765;28;9927;-66
2022/06/04 02:24:43;;;;;;;;;9.50;8.50;;;;;14.05;66.00;102115.09;5030821;28;9848;-65
2022/06/04 02:27:10;;;;;;;;;11.00;11.00;;;;;14.07;65.46;102121.19;5031637;28;9941;-65
2022/06/04 02:29:39;;;;;;;;;11.00;10.50;;;;;13.93;65.66;102122.84;5032142;28;9932;-66
2022/06/04 02:32:11;;;;;;;;;9.25;9.25;;;;;13.78;66.44;102124.72;5031170;28;9934;-65
2022/06/04 02:34:56;;;;;;;;;14.50;13.50;;;;;13.71;66.91;102130.00;5031489;28;10092;-66
2022/06/04 02:37:30;;;;;;;;;9.25;7.75;;;;;13.75;67.71;102131.31;5031615;28;10077;-64
2022/06/04 02:40:09;;;;;;;;;8.00;8.00;;;;;13.88;67.55;102119.00;5031662;28;9933;-66
2022/06/04 02:42:52;;;;;;;;;13.25;9.75;;;;;13.95;67.46;102117.25;5031814;28;10022;-66
2022/06/04 02:45:31;;;;;;;;;9.50;8.25;;;;;14.01;67.17;102119.22;5032428;28;10661;-65
2022/06/04 02:48:25;;;;;;;;;12.25;12.00;;;;;13.95;67.43;102125.38;5031924;28;10004;-66
2022/06/04 02:51:00;;;;;;;;;9.75;8.00;;;;;13.96;67.79;102116.22;5030581;28;10019;-65
2022/06/04 02:53:31;;;;;;;;;12.75;9.75;;;;;13.94;67.18;102124.53;5031613;28;9957;-66
2022/06/04 02:56:03;;;;;;;;;10.50;9.00;;;;;13.91;67.46;102122.19;5031847;28;10642;-65
2022/06/04 02:58:31;;;;;;;;;12.25;10.50;;;;;13.87;67.43;102128.16;5023465;28;10014;-66
2022/06/04 03:00:59;;;;;;;;;12.25;8.25;;;;;13.77;67.56;102115.75;5031471;28;9934;-65
2022/06/04 03:03:25;;;;;;;;;12.25;11.00;;;;;13.71;67.84;102110.22;5031953;28;10008;-65
2022/06/04 03:05:58;;;;;;;;;12.75;11.75;;;;;13.72;67.86;102104.63;5031815;28;10025;-65
2022/06/04 03:08:31;;;;;;;;;11.50;10.00;;;;;13.76;68.20;102100.50;5031335;28;9935;-65
2022/06/04 03:10:58;;;;;;;;;10.25;10.25;;;;;13.77;67.45;102085.97;5032026;28;9992;-65
2022/06/04 03:13:25;;;;;;;;;10.00;10.00;;;;;13.71;68.06;102091.28;5031737;28;10777;-64
2022/06/04 03:15:51;;;;;;;;;10.25;10.25;;;;;13.73;68.35;102095.50;5030002;28;9912;-66
2022/06/04 03:18:18;;;;;;;;;11.00;10.25;;;;;13.69;68.42;102104.13;5031325;28;10078;-66
2022/06/04 03:20:45;;;;;;;;;9.75;9.00;;;;;13.68;68.70;102103.31;5031337;28;9964;-67
2022/06/04 03:23:14;;;;;;;;;12.50;10.50;;;;;13.63;68.99;102099.47;5031334;28;10113;-66
2022/06/04 03:25:41;;;;;;;;;10.75;9.50;;;;;13.64;69.25;102093.03;5030865;28;10101;-66
2022/06/04 03:28:08;;;;;;;;;13.00;10.00;;;;;13.63;69.42;102075.97;5031506;28;10090;-66
2022/06/04 03:30:35;;;;;;;;;14.75;10.75;;;;;13.60;68.35;102073.63;5030968;28;10075;-66
2022/06/04 03:33:03;;;;;;;;;11.00;10.00;;;;;13.51;68.67;102074.72;5055585;23;10171;-65
2022/06/04 03:35:29;;;;;;;;;12.25;9.00;;;;;13.48;68.75;102088.63;5048929;28;9992;-68
2022/06/04 03:37:56;;;;;;;;;10.00;9.75;;;;;13.46;68.82;102079.84;5048974;28;10255;-65
2022/06/04 03:40:22;;;;;;;;;13.75;12.00;;;;;13.51;68.07;102088.25;5049434;28;9900;-66
2022/06/04 03:42:49;;;;;;;;;7.25;7.25;;;;;13.53;68.64;102091.59;5048631;28;10162;-66
2022/06/04 03:45:15;;;;;;;;;12.25;10.00;;;;;13.54;67.98;102096.84;5036303;28;9999;-65
2022/06/04 03:47:42;;;;;;;;;12.25;10.00;;;;;13.51;67.69;102101.78;5030788;28;9987;-66
2022/06/04 03:50:16;;;;;;;;;11.50;9.00;;;;;13.50;67.97;102103.66;5033290;28;9996;-66
2022/06/04 03:52:44;;;;;;;;;14.50;13.00;;;;;13.48;67.82;102107.53;5033261;28;10033;-65
2022/06/04 03:55:11;;;;;;;;;17.75;15.00;;;;;13.42;67.70;102094.78;5044477;28;10144;-66
2022/06/04 03:57:48;;;;;;;;;12.25;9.75;;;;;13.37;67.93;102108.84;5052372;28;10148;-66
2022/06/04 04:00:34;;;;;;;;;17.50;16.25;;;;;13.35;68.31;102109.00;5053054;28;10279;-66
2022/06/04 04:03:10;;;;;;;;;8.75;8.75;;;;;13.39;69.07;102103.25;5052661;28;10343;-66
2022/06/04 04:05:41;;;;;;;;;11.00;10.25;;;;;13.35;68.38;102105.47;5036994;28;10281;-66
2022/06/04 04:08:08;;;;;;;;;8.25;8.25;;;;;13.41;68.93;102112.00;5024736;28;10148;-65
2022/06/04 04:10:38;;;;;;;;;11.50;10.75;;;;;13.44;67.97;102114.34;5032948;28;10070;-66
2022/06/04 04:13:05;;;;;;;;;16.00;12.75;;;;;13.42;67.11;102113.69;5035093;28;10337;-65
2022/06/04 04:15:32;;;;;;;;;11.50;11.50;;;;;13.34;67.50;102118.16;5037611;28;10403;-66
2022/06/04 04:17:59;;;;;;;;;13.75;11.00;;;;;13.28;67.77;102110.75;5032293;28;10065;-66
2022/06/04 04:20:29;;;;;;;;;16.00;14.00;;;;;13.21;67.92;102106.22;5032795;28;10175;-65
2022/06/04 04:22:57;;;;;;;;;12.50;10.00;;;;;13.18;68.62;102112.84;5032745;28;10199;-66
2022/06/04 04:25:26;;;;;;;;;11.00;10.75;;;;;13.24;68.21;102105.88;5038571;28;10073;-66
2022/06/04 04:27:53;;;;;;;;;11.00;10.00;;;;;13.24;68.09;102122.94;5031125;28;10096;-65
2022/06/04 04:30:22;;;;;;;;;11.25;11.25;;;;;13.24;68.10;102112.13;5032511;28;10094;-66
2022/06/04 04:32:50;;;;;;;;;17.75;13.50;;;;;13.21;68.13;102115.19;5032203;28;10018;-66
2022/06/04 04:35:21;;;;;;;;;8.25;8.00;;;;;13.20;68.21;102110.78;5049562;28;10069;-64
2022/06/04 04:37:48;;;;;;;;;14.00;12.50;;;;;13.20;68.34;102105.38;5051449;28;10638;-65
2022/06/04 04:40:17;;;;;;;;;13.25;13.25;;;;;13.27;67.98;102109.06;5051361;28;9975;-65
2022/06/04 04:42:45;;;;;;;;;9.75;8.00;;;;;13.26;67.01;102109.25;5051669;28;10747;-65
2022/06/04 04:45:12;;;;;;;;;13.50;12.75;;;;;13.22;67.29;102106.03;5035172;28;9925;-65
2022/06/04 04:47:40;;;;;;;;;10.00;10.00;;;;;13.26;67.55;102109.25;5047381;28;10136;-66
2022/06/04 04:50:16;;;;;;;;;9.50;8.50;;;;;13.34;67.88;102107.31;5032081;28;10093;-65
2022/06/04 04:52:42;;;;;;;;;11.00;8.25;;;;;13.43;68.11;102099.97;5032039;28;10062;-65
2022/06/04 04:55:09;;;;;;;;;13.00;9.50;;;;;13.42;68.22;102097.47;5047060;28;10507;-66
2022/06/04 04:57:36;;;;;;;;;5.50;3.50;;;;;13.46;68.56;102112.31;5051237;28;10076;-66
2022/06/04 05:00:05;;;;;;;;;10.25;10.25;;;;;13.48;67.99;102108.38;5051193;28;9965;-66
2022/06/04 05:02:31;;;;;;;;;11.75;9.00;;;;;13.45;67.69;102100.66;5050605;28;10069;-65
2022/06/04 05:04:58;;;;;;;;;12.50;11.50;;;;;13.45;68.26;102110.59;5046777;28;10097;-66
2022/06/04 05:07:24;;;;;;;;;6.50;6.50;;;;;13.53;68.02;102121.34;5050811;28;10074;-66
2022/06/04 05:09:51;;;;;;;;;9.00;8.25;;;;;13.58;67.56;102124.38;5051800;28;9735;-66
2022/06/04 05:12:17;;;;;;;;;8.00;7.50;;;;;13.51;67.93;102113.44;5049885;28;9929;-66
2022/06/04 05:14:43;;;;;;;;;12.25;12.25;;;;;13.41;67.92;102118.28;5046810;28;9778;-65
2022/06/04 05:17:10;;;;;;;;;7.75;7.00;;;;;13.43;68.22;102126.19;5050804;28;9825;-66
2022/06/04 05:19:36;;;;;;;;;10.75;10.25;;;;;13.50;67.69;102119.03;5050871;28;9851;-66
2022/06/04 05:22:03;;;;;;;;;10.25;6.00;;;;;13.54;67.52;102112.25;5051116;28;10065;-67
2022/06/04 05:24:32;;;;;;;;;7.00;7.00;;;;;13.58;67.18;102121.69;5045538;28;9845;-66
2022/06/04 05:27:00;;;;;;;;;8.00;6.75;;;;;13.60;67.20;102128.56;5049382;28;9918;-66
2022/06/04 05:29:28;;;;;;;;;12.00;9.50;;;;;13.60;66.22;102133.13;5050365;28;10001;-66
2022/06/04 05:31:54;;;;;;;;;9.75;9.00;;;;;13.58;67.34;102133.34;5050626;28;9990;-66
2022/06/04 05:34:21;;;;;;;;;14.00;10.25;;;;;13.63;66.57;102126.53;5047109;28;9737;-66
2022/06/04 05:36:47;;;;;;;;;11.00;7.25;;;;;13.70;67.18;102112.09;5049076;28;9851;-66
2022/06/04 05:39:15;;;;;;;;;8.00;8.00;;;;;13.84;66.44;102119.38;5050669;28;9894;-68
2022/06/04 05:41:42;;;;;;;;;5.50;5.50;;;;;13.83;66.36;102139.34;5050161;28;9939;-66
2022/06/04 05:44:09;;;;;;;;;6.25;5.50;;;;;13.80;65.34;102123.47;5047591;28;9974;-66
2022/06/04 05:46:41;;;;;;;;;9.00;9.00;;;;;13.84;65.71;102123.94;5050012;28;9589;-66
2022/06/04 05:49:15;;;;;;;;;7.25;5.75;;;;;13.98;65.78;102135.84;5050528;28;9827;-66
2022/06/04 05:51:43;;;;;;;;;10.00;7.75;;;;;14.15;65.57;102141.91;5050190;28;9839;-66
2022/06/04 05:54:11;;;;;;;;;7.00;7.00;;;;;14.34;64.42;102152.16;5046435;28;9697;-65
2022/06/04 05:56:41;;;;;;;;;8.00;7.75;;;;;14.36;64.63;102147.44;5049768;28;9489;-66
2022/06/04 05:59:11;;;;;;;;;8.00;6.00;;;;;14.29;64.80;102144.63;5050303;28;9627;-67
2022/06/04 06:01:38;;;;;;;;;7.00;6.75;;;;;14.31;65.17;102147.16;5049859;28;9602;-66
2022/06/04 06:04:06;;;;;;;;;8.75;8.50;;;;;14.34;65.38;102153.03;5047980;28;9610;-66
2022/06/04 06:06:35;;;;;;;;;8.75;7.25;;;;;14.41;64.95;102144.16;5049481;28;9607;-66
2022/06/04 06:09:06;;;;;;;;;9.50;9.50;;;;;14.34;64.44;102153.03;5050099;28;9647;-66
2022/06/04 06:11:33;;;;;;;;;7.50;6.50;;;;;14.29;65.41;102160.03;5049257;28;9451;-66
2022/06/04 06:13:59;;;;;;;;;9.50;8.00;;;;;14.27;64.67;102162.94;5045806;28;9529;-65
2022/06/04 06:16:29;;;;;;;;;7.00;7.00;;;;;14.29;65.20;102157.31;5030440;28;9579;-66
2022/06/04 06:18:58;;;;;;;;;9.00;6.75;;;;;14.33;64.91;102151.34;5022363;28;9522;-66
2022/06/04 06:21:30;;;;;;;;;7.25;7.25;;;;;14.32;64.70;102160.50;5025713;28;9614;-67
2022/06/04 06:23:57;;;;;;;;;10.25;7.50;;;;;14.30;64.44;102159.88;5025333;28;10498;-66
2022/06/04 06:26:33;;;;;;;;;8.75;7.00;;;;;14.23;64.38;102172.47;5049705;28;10342;-66
2022/06/04 06:29:01;;;;;;;;;8.75;5.25;;;;;14.22;64.62;102164.50;5048528;28;9531;-67
2022/06/04 06:31:29;;;;;;;;;8.00;7.00;;;;;14.24;64.59;102170.59;5049603;28;9518;-67
2022/06/04 06:33:56;;;;;;;;;9.50;7.00;;;;;14.22;64.57;102156.38;5045545;28;9586;-65
2022/06/04 06:36:23;;;;;;;;;7.25;6.75;;;;;14.20;65.18;102159.28;5030413;28;9674;-66
2022/06/04 06:38:51;;;;;;;;;6.50;5.25;;;;;14.24;64.53;102162.47;5045307;28;9606;-66
2022/06/04 06:41:21;;;;;;;;;5.25;5.25;;;;;14.24;64.71;102176.84;5035491;28;9759;-66
2022/06/04 06:43:50;;;;;;;;;5.50;5.50;;;;;14.32;64.93;102163.22;5047221;28;10315;-67
2022/06/04 06:46:27;;;;;;;;;6.00;5.50;;;;;14.51;64.68;102179.97;5028946;28;9675;-66
2022/06/04 06:49:04;;;;;;;;;10.50;10.50;;;;;14.49;64.22;102173.88;5029990;28;9666;-67
2022/06/04 06:51:38;;;;;;;;;6.75;6.00;;;;;14.43;64.17;102180.88;5030241;28;9745;-66
2022/06/04 06:54:04;;;;;;;;;8.50;7.75;;;;;14.36;64.13;102182.66;5029901;28;9626;-66
2022/06/04 06:56:34;;;;;;;;;6.50;6.50;;;;;14.23;64.51;102190.59;5030114;28;9631;-65
2022/06/04 06:59:03;;;;;;;;;7.25;6.75;;;;;14.04;64.68;102179.25;5029851;28;10336;-66
2022/06/04 07:01:31;;;;;;;;;6.50;6.00;;;;;13.89;65.78;102181.06;5030159;28;9681;-66
2022/06/04 07:03:58;;;;;;;;;9.25;8.25;;;;;13.82;66.39;102174.75;5037756;28;9743;-66
2022/06/04 07:06:40;;;;;;;;;7.50;5.00;;;;;13.87;67.07;102175.03;5030251;28;9885;-66
2022/06/04 07:09:12;;;;;;;;;6.00;5.25;;;;;14.00;66.42;102188.75;5049111;28;9793;-66
2022/06/04 07:11:39;;;;;;;;;9.50;8.75;;;;;14.01;65.21;102185.03;5049452;28;9740;-65
2022/06/04 07:14:06;;;;;;;;;9.50;7.75;;;;;13.89;65.37;102189.19;5041189;28;9599;-66
2022/06/04 07:16:32;;;;;;;;;8.00;7.50;;;;;13.86;65.67;102189.59;5049347;28;10368;-66
2022/06/04 07:19:00;;;;;;;;;10.75;9.00;;;;;13.90;65.97;102181.94;5039901;28;9705;-67
2022/06/04 07:21:27;;;;;;;;;6.25;5.50;;;;;13.92;65.65;102196.97;5029934;28;9679;-67
2022/06/04 07:23:54;;;;;;;;;8.00;8.00;;;;;13.91;65.85;102194.44;5039776;28;9684;-66
2022/06/04 07:26:21;;;;;;;;;9.00;8.00;;;;;13.88;65.86;102184.81;5033921;28;9683;-66
2022/06/04 07:28:48;;;;;;;;;7.00;6.00;;;;;13.87;66.47;102187.72;5033500;28;9857;-67
2022/06/04 07:31:15;;;;;;;;;6.00;6.00;;;;;13.92;66.41;102188.84;5033840;28;9833;-67
2022/06/04 07:33:45;;;;;;;;;7.00;7.00;;;;;14.01;66.56;102195.00;5039362;28;9918;-65
2022/06/04 07:36:15;;;;;;;;;7.50;6.00;;;;;14.07;65.74;102184.31;5052123;28;9827;-66
2022/06/04 07:38:42;;;;;;;;;5.00;5.00;;;;;14.17;65.52;102175.06;5052535;28;9650;-67
2022/06/04 07:41:20;;;;;;;;;6.50;6.25;;;;;14.20;65.86;102172.00;5052398;28;9592;-67
2022/06/04 07:43:47;;;;;;;;;7.00;7.00;;;;;14.20;65.88;102175.53;5046409;28;9860;-68
2022/06/04 07:46:15;;;;;;;;;8.50;8.00;;;;;14.21;65.13;102185.34;5033749;28;9849;-65
2022/06/04 07:48:42;;;;;;;;;6.00;6.00;;;;;14.21;64.59;102173.66;5033339;28;9515;-67
2022/06/04 07:51:09;;;;;;;;;9.00;9.00;;;;;14.26;64.84;102177.50;5033368;28;9671;-66
2022/06/04 07:53:36;;;;;;;;;9.25;9.25;;;;;14.25;64.98;102178.50;5053180;28;9770;-67
2022/06/04 07:56:08;;;;;;;;;6.00;6.00;;;;;14.25;64.51;102169.56;5043296;28;9599;-67
2022/06/04 07:58:36;;;;;;;;;7.00;7.00;;;;;14.28;64.72;102182.72;5032991;28;9589;-66
2022/06/04 08:01:03;;;;;;;;;5.50;5.50;;;;;14.30;65.05;102183.38;5033537;28;9575;-66
2022/06/04 08:03:33;;;;;;;;;8.00;6.50;;;;;14.28;64.38;102188.16;5028175;28;9767;-67
2022/06/04 08:06:01;;;;;;;;;9.00;6.50;;;;;14.28;64.66;102183.56;5051282;28;9892;-67
2022/06/04 08:08:28;;;;;;;;;5.25;4.75;;;;;14.35;64.65;102176.38;5051903;28;10417;-67
2022/06/04 08:10:55;;;;;;;;;8.00;6.25;;;;;14.43;64.48;102175.47;5052324;28;9786;-66
2022/06/04 08:13:30;;;;;;;;;7.50;6.25;;;;;14.48;63.72;102169.47;5050295;28;9743;-67
2022/06/04 08:16:03;;;;;;;;;7.75;7.00;;;;;14.45;63.64;102167.97;5050802;28;9592;-67
2022/06/04 08:18:29;;;;;;;;;6.50;6.50;;;;;14.49;63.69;102163.06;5051623;28;9700;-68
2022/06/04 08:20:56;;;;;;;;;7.00;5.50;;;;;14.52;63.02;102157.25;5052330;28;9765;-68
2022/06/04 08:23:22;;;;;;;;;7.00;7.00;;;;;14.53;63.65;102154.34;5050459;28;9664;-68
2022/06/04 08:25:51;;;;;;;;;7.00;7.00;;;;;14.53;63.00;102150.81;5048375;28;9732;-68
2022/06/04 08:28:18;;;;;;;;;9.00;5.75;;;;;14.58;62.89;102148.38;5051345;28;9602;-67
2022/06/04 08:30:45;;;;;;;;;6.50;6.50;;;;;14.67;62.99;102160.81;5047697;28;9733;-67
2022/06/04 08:33:12;;;;;;;;;7.00;5.75;;;;;14.71;63.21;102159.41;5039416;28;10340;-67
2022/06/04 08:35:38;;;;;;;;;8.25;8.25;;;;;14.81;63.03;102165.34;5035451;28;9587;-68
2022/06/04 08:38:05;;;;;;;;;6.50;6.50;;;;;14.86;63.21;102180.19;5032050;28;9588;-68
2022/06/04 08:40:39;;;;;;;;;8.25;8.25;;;;;14.92;61.88;102168.59;5032305;28;9570;-67
2022/06/04 08:43:18;;;;;;;;;8.00;8.00;;;;;15.01;61.90;102179.13;5047359;28;9737;-66
2022/06/04 08:45:45;;;;;;;;;4.00;4.00;;;;;15.18;62.03;102187.03;5045589;28;10452;-67
2022/06/04 08:48:27;;;;;;;;;8.75;8.25;;;;;15.36;61.57;102186.63;5051590;28;9511;-67
2022/06/04 08:50:54;;;;;;;;;6.00;6.00;;;;;15.49;61.73;102198.44;5051581;28;9582;-67
2022/06/04 08:53:25;;;;;;;;;6.75;5.75;;;;;15.52;61.13;102195.34;5050545;28;9439;-66
2022/06/04 08:58:46;;;;;;;;;11.25;7.50;;;;;15.75;61.44;102207.88;5031701;28;9580;-66
2022/06/04 09:01:28;;;;;;;;;8.75;7.25;;;;;15.92;60.64;102205.72;5027323;28;9544;-66
2022/06/04 09:04:10;;;;;;;;;8.50;7.50;;;;;16.03;59.63;102206.03;5027330;28;9593;-67
2022/06/04 09:06:57;;;;;;;;;5.25;5.00;;;;;16.03;60.02;102229.66;5031565;28;9455;-66
2022/06/04 09:09:39;;;;;;;;;9.00;8.50;;;;;16.08;59.77;102216.31;5030400;28;9397;-67
2022/06/04 09:12:45;;;;;;;;;7.50;6.50;;;;;16.05;59.54;102198.56;5026043;28;9370;-67
2022/06/04 09:15:31;;;;;;;;;5.00;5.00;;;;;16.20;59.69;102201.16;5033713;28;9526;-66
2022/06/04 09:18:03;;;;;;;;;8.00;7.67;;;;;16.37;59.26;102192.72;5024557;28;10106;-67
2022/06/04 09:20:34;;;;;;;;;9.67;8.33;;;;;16.36;58.04;102207.31;5031580;28;9368;-66
2022/06/04 09:23:06;;;;;;;;;10.67;7.33;;;;;16.21;58.45;102208.28;5031158;28;9977;-67
2022/06/04 09:25:45;;;;;;;;;10.33;7.67;;;;;16.18;59.25;102216.00;5032967;28;9304;-66
2022/06/04 09:28:23;;;;;;;;;8.33;7.67;;;;;16.19;58.17;102213.06;5031259;28;9463;-66
2022/06/04 09:31:08;;;;;;;;;10.67;8.00;;;;;16.20;58.80;102212.00;5048046;28;9290;-66
2022/06/04 09:33:53;;;;;;;;;6.67;6.67;;;;;16.21;58.94;102224.59;5049456;28;9285;-65
2022/06/04 09:36:24;;;;;;;;;6.00;6.00;;;;;16.30;58.63;102226.09;5026351;28;9311;-65
2022/06/04 09:38:56;;;;;;;;;6.00;3.00;;;;;16.29;58.20;102224.44;5031970;28;9941;-65
2022/06/04 09:41:26;;;;;;;;;8.00;7.33;;;;;16.29;58.14;102229.03;5050420;28;9323;-66
2022/06/04 09:44:13;;;;;;;;;6.67;6.00;;;;;16.27;58.37;102242.78;5047429;28;9405;-65
2022/06/04 09:46:45;;;;;;;;;7.00;7.00;;;;;16.30;58.86;102228.81;5031198;28;9401;-65
2022/06/04 09:49:28;;;;;;;;;7.50;7.50;;;;;16.34;57.97;102234.69;5046150;28;9267;-65
2022/06/04 09:51:55;;;;;;;;;9.00;9.00;;;;;16.28;58.33;102224.59;5030696;28;9357;-64
2022/06/04 09:54:33;;;;;;;;;12.00;11.00;;;;;16.29;58.28;102221.72;5036643;28;9455;-64
2022/06/04 09:57:03;;;;;;;;;8.00;8.00;;;;;16.27;58.70;102223.78;5022531;28;9297;-66
2022/06/04 09:59:32;;;;;;;;;7.67;7.67;;;;;16.35;58.47;102211.91;5036793;28;9308;-65
2022/06/04 10:02:11;;;;;;;;;10.00;9.67;;;;;16.31;58.08;102218.78;5048539;28;9426;-65
2022/06/04 10:04:44;;;;;;;;;7.00;7.00;;;;;16.32;58.27;102207.72;5049482;28;9212;-67
2022/06/04 10:07:14;;;;;;;;;9.67;8.00;;;;;16.50;58.64;102211.81;5049834;28;9333;-66
2022/06/04 10:09:56;;;;;;;;;10.33;8.67;;;;;16.76;57.71;102219.28;5048256;28;10018;-67
2022/06/04 10:13:42;;;;;;;;;10.67;9.67;;;;;16.91;57.42;102211.00;5049747;28;9217;-67
2022/06/04 10:15:30;;;;;;;;;8.00;7.67;;;;;17.01;57.82;102211.44;5037372;28;9317;-67
2022/06/04 10:18:14;;;;;;;;;12.67;10.67;;;;;16.99;55.27;102222.53;5027976;28;9312;-67
2022/06/04 10:20:41;;;;;;;;;7.00;7.00;;;;;16.91;56.40;102220.00;5046033;28;9361;-67
2022/06/04 10:23:14;;;;;;;;;7.67;7.00;;;;;16.89;56.95;102207.63;5041627;28;9210;-65
2022/06/04 10:25:58;;;;;;;;;8.00;6.67;;;;;16.86;57.23;102216.22;5033813;28;9239;-66
2022/06/04 10:28:43;;;;;;;;;8.00;8.00;;;;;16.88;57.27;102217.69;5030009;28;9146;-67
2022/06/04 10:31:21;;;;;;;;;10.00;6.67;;;;;16.99;57.69;102217.09;5022166;28;9162;-65
2022/06/04 10:33:59;;;;;;;;;8.00;7.00;;;;;17.11;57.49;102228.25;5030575;28;9026;-66
2022/06/04 10:36:33;;;;;;;;;9.67;9.67;;;;;17.11;56.93;102222.81;5049693;28;9138;-66
2022/06/04 10:39:16;;;;;;;;;9.67;9.67;;;;;17.09;57.17;102218.59;5047053;28;9190;-65
2022/06/04 10:41:52;;;;;;;;;9.00;7.67;;;;;17.20;57.46;102218.84;5030363;28;9050;-65
2022/06/04 10:44:36;;;;;;;;;6.33;6.33;;;;;17.29;56.98;102225.78;5031429;28;9781;-65
2022/06/04 10:47:28;;;;;;;;;7.33;7.33;;;;;17.36;56.66;102217.63;5030127;28;9947;-65
2022/06/04 10:50:16;;;;;;;;;8.33;7.00;;;;;17.39;56.10;102219.94;5031337;28;9301;-65
2022/06/04 10:53:00;;;;;;;;;10.00;7.00;;;;;17.32;56.25;102229.97;5030129;28;9145;-66
2022/06/04 10:55:38;;;;;;;;;8.00;7.00;;;;;17.16;56.91;102217.56;5031014;28;9369;-65
2022/06/04 10:58:17;;;;;;;;;6.00;6.00;;;;;17.09;57.28;102219.44;5033740;28;9227;-65
2022/06/04 11:00:50;;;;;;;;;10.00;10.00;;;;;17.00;56.37;102220.66;5035375;28;9246;-66
2022/06/04 11:03:27;;;;;;;;;9.33;9.33;;;;;16.94;57.18;102216.03;5043416;28;9440;-65
2022/06/04 11:06:03;;;;;;;;;8.00;6.67;;;;;16.90;57.08;102215.59;5052092;28;9296;-66
2022/06/04 11:08:36;;;;;;;;;11.00;11.00;;;;;16.87;56.88;102220.59;5052632;28;9236;-64
2022/06/04 11:11:11;;;;;;;;;12.00;11.00;;;;;16.77;56.68;102210.94;5050934;28;9374;-65
2022/06/04 11:14:11;;;;;;;;;9.33;8.00;;;;;16.68;57.27;102195.78;5053173;28;9424;-64
2022/06/04 11:16:43;;;;;;;;;6.00;6.00;;;;;16.77;57.71;102205.50;4997929;28;9183;-66
2022/06/04 11:19:16;;;;;;;;;8.00;8.00;;;;;16.90;57.63;102207.44;5036984;28;9189;-66
2022/06/04 11:22:15;;;;;;;;;8.00;8.00;;;;;16.97;57.47;102212.91;5026862;28;9146;-65
2022/06/04 11:24:56;;;;;;;;;8.67;8.67;;;;;16.97;56.89;102215.63;5035898;28;9939;-67
2022/06/04 11:27:31;;;;;;;;;11.00;10.00;;;;;16.94;57.05;102208.72;5052479;28;9340;-66
2022/06/04 11:29:58;;;;;;;;;11.00;10.33;;;;;16.92;57.23;102208.06;5042561;28;9208;-66
2022/06/04 11:32:30;;;;;;;;;8.33;6.33;;;;;16.98;57.74;102207.28;5032242;28;9481;-67
2022/06/04 11:35:04;;;;;;;;;9.00;6.33;;;;;17.04;57.08;102203.72;5043056;28;9390;-65
2022/06/04 11:37:57;;;;;;;;;9.33;6.33;;;;;17.04;57.03;102203.72;5050853;28;9149;-66
2022/06/04 11:40:50;;;;;;;;;14.00;9.00;;;;;17.08;57.61;102196.00;5038847;28;9285;-66
2022/06/04 11:43:41;;;;;;;;;6.00;6.00;;;;;17.18;57.62;102203.78;5033124;28;10011;-66
2022/06/04 11:46:26;;;;;;;;;8.33;7.00;;;;;17.26;57.63;102203.59;5052673;28;9844;-66
2022/06/04 11:49:20;;;;;;;;;9.33;4.67;;;;;17.29;57.72;102212.16;5050823;28;8977;-65
2022/06/04 11:51:53;;;;;;;;;8.00;7.00;;;;;17.37;58.19;102213.03;5033269;28;9301;-65
2022/06/04 11:54:53;;;;;;;;;10.33;7.33;;;;;17.39;58.52;102222.69;5037631;28;9236;-66
2022/06/04 11:57:36;;;;;;;;;7.67;7.00;;;;;17.47;58.05;102213.47;5052324;28;9944;-67
2022/06/04 12:00:28;;;;;;;;;7.67;7.67;;;;;17.55;57.69;102221.44;5041757;28;9235;-65
2022/06/04 12:03:25;;;;;;;;;10.00;7.00;;;;;17.59;58.17;102211.00;5033082;28;9066;-66